sensor_id;sensor_type;location;lat;lon;timestamp;P1;durP1;ratioP1;P2;durP2;ratioP2
56141;SDS011;42018;48.588;10.836;2023-02-04T00:00:15;5.20;;;2.40;;
56141;SDS011;42018;48.588;10.836;2023-02-04T00:03:03;5.43;;;2.75;;
56141;SDS011;42018;48.588;10.836;2023-02-04T00:05:48;5.75;;;2.58;;
56141;SDS011;42018;48.588;10.836;2023-02-04T00:08:33;6.22;;;2.50;;
56141;SDS011;42018;48.588;10.836;2023-02-04T00:11:19;5.85;;;2.75;;
56141;SDS011;42018;48.588;10.836;2023-02-04T00:14:04;5.10;;;2.40;;
56141;SDS011;42018;48.588;10.836;2023-02-04T00:16:50;4.50;;;2.50;;
56141;SDS011;42018;48.588;10.836;2023-02-04T00:19:35;4.70;;;2.35;;
56141;SDS011;42018;48.588;10.836;2023-02-04T00:22:21;6.25;;;2.28;;
56141;SDS011;42018;48.588;10.836;2023-02-04T00:25:06;6.57;;;2.60;;
56141;SDS011;42018;48.588;10.836;2023-02-04T00:27:52;7.30;;;2.72;;
56141;SDS011;42018;48.588;10.836;2023-02-04T00:30:37;7.95;;;2.70;;
56141;SDS011;42018;48.588;10.836;2023-02-04T00:33:23;8.15;;;2.88;;
56141;SDS011;42018;48.588;10.836;2023-02-04T00:36:08;8.32;;;2.67;;
56141;SDS011;42018;48.588;10.836;2023-02-04T00:38:54;9.73;;;3.50;;
56141;SDS011;42018;48.588;10.836;2023-02-04T00:41:39;10.57;;;3.33;;
56141;SDS011;42018;48.588;10.836;2023-02-04T00:44:24;11.52;;;3.53;;
56141;SDS011;42018;48.588;10.836;2023-02-04T00:47:10;9.10;;;3.60;;
56141;SDS011;42018;48.588;10.836;2023-02-04T00:49:55;10.27;;;3.58;;
56141;SDS011;42018;48.588;10.836;2023-02-04T00:52:41;8.45;;;2.90;;
56141;SDS011;42018;48.588;10.836;2023-02-04T00:55:26;9.73;;;2.92;;
56141;SDS011;42018;48.588;10.836;2023-02-04T00:58:12;10.13;;;3.22;;
56141;SDS011;42018;48.588;10.836;2023-02-04T01:00:57;11.32;;;2.95;;
56141;SDS011;42018;48.588;10.836;2023-02-04T01:03:42;9.60;;;2.92;;
56141;SDS011;42018;48.588;10.836;2023-02-04T01:06:28;7.80;;;2.53;;
56141;SDS011;42018;48.588;10.836;2023-02-04T01:09:13;12.23;;;3.10;;
56141;SDS011;42018;48.588;10.836;2023-02-04T01:11:58;9.48;;;3.08;;
56141;SDS011;42018;48.588;10.836;2023-02-04T01:14:43;10.07;;;3.40;;
56141;SDS011;42018;48.588;10.836;2023-02-04T01:17:29;10.05;;;2.67;;
56141;SDS011;42018;48.588;10.836;2023-02-04T01:20:14;11.70;;;2.97;;
56141;SDS011;42018;48.588;10.836;2023-02-04T01:23:03;8.80;;;2.30;;
56141;SDS011;42018;48.588;10.836;2023-02-04T01:25:48;9.43;;;2.92;;
56141;SDS011;42018;48.588;10.836;2023-02-04T01:28:33;9.65;;;3.08;;
56141;SDS011;42018;48.588;10.836;2023-02-04T01:31:19;7.38;;;2.72;;
56141;SDS011;42018;48.588;10.836;2023-02-04T01:34:04;7.85;;;2.60;;
56141;SDS011;42018;48.588;10.836;2023-02-04T01:36:49;9.48;;;2.72;;
56141;SDS011;42018;48.588;10.836;2023-02-04T01:39:35;9.55;;;2.97;;
56141;SDS011;42018;48.588;10.836;2023-02-04T01:42:20;12.07;;;3.45;;
56141;SDS011;42018;48.588;10.836;2023-02-04T01:45:06;11.77;;;2.72;;
56141;SDS011;42018;48.588;10.836;2023-02-04T01:47:52;11.20;;;3.25;;
56141;SDS011;42018;48.588;10.836;2023-02-04T01:50:37;10.77;;;3.40;;
56141;SDS011;42018;48.588;10.836;2023-02-04T01:53:23;12.95;;;3.10;;
56141;SDS011;42018;48.588;10.836;2023-02-04T01:56:14;8.82;;;3.28;;
56141;SDS011;42018;48.588;10.836;2023-02-04T01:59:09;7.82;;;2.70;;
56141;SDS011;42018;48.588;10.836;2023-02-04T02:01:56;9.68;;;3.15;;
56141;SDS011;42018;48.588;10.836;2023-02-04T02:04:41;11.98;;;3.15;;
56141;SDS011;42018;48.588;10.836;2023-02-04T02:07:26;8.18;;;2.80;;
56141;SDS011;42018;48.588;10.836;2023-02-04T02:10:12;10.48;;;3.15;;
56141;SDS011;42018;48.588;10.836;2023-02-04T02:12:59;8.55;;;3.10;;
56141;SDS011;42018;48.588;10.836;2023-02-04T02:15:45;10.20;;;3.05;;
56141;SDS011;42018;48.588;10.836;2023-02-04T02:18:31;9.40;;;3.22;;
56141;SDS011;42018;48.588;10.836;2023-02-04T02:21:17;9.63;;;3.30;;
56141;SDS011;42018;48.588;10.836;2023-02-04T02:24:27;11.23;;;3.17;;
56141;SDS011;42018;48.588;10.836;2023-02-04T02:27:15;9.30;;;2.72;;
56141;SDS011;42018;48.588;10.836;2023-02-04T02:30:01;8.55;;;3.30;;
56141;SDS011;42018;48.588;10.836;2023-02-04T02:32:46;10.35;;;2.92;;
56141;SDS011;42018;48.588;10.836;2023-02-04T02:35:33;11.18;;;2.85;;
56141;SDS011;42018;48.588;10.836;2023-02-04T02:38:18;9.68;;;2.97;;
56141;SDS011;42018;48.588;10.836;2023-02-04T02:41:04;11.95;;;3.30;;
56141;SDS011;42018;48.588;10.836;2023-02-04T02:43:52;7.55;;;2.63;;
56141;SDS011;42018;48.588;10.836;2023-02-04T02:46:38;8.73;;;2.80;;
56141;SDS011;42018;48.588;10.836;2023-02-04T02:49:24;15.65;;;4.20;;
56141;SDS011;42018;48.588;10.836;2023-02-04T02:52:11;9.75;;;3.28;;
56141;SDS011;42018;48.588;10.836;2023-02-04T02:54:57;11.65;;;3.35;;
56141;SDS011;42018;48.588;10.836;2023-02-04T02:57:45;13.48;;;2.70;;
56141;SDS011;42018;48.588;10.836;2023-02-04T03:00:32;9.15;;;2.60;;
56141;SDS011;42018;48.588;10.836;2023-02-04T03:03:22;12.75;;;2.90;;
56141;SDS011;42018;48.588;10.836;2023-02-04T03:06:12;8.98;;;2.53;;
56141;SDS011;42018;48.588;10.836;2023-02-04T03:09:00;9.27;;;2.50;;
56141;SDS011;42018;48.588;10.836;2023-02-04T03:11:46;10.43;;;2.67;;
56141;SDS011;42018;48.588;10.836;2023-02-04T03:14:32;8.75;;;2.35;;
56141;SDS011;42018;48.588;10.836;2023-02-04T03:17:19;10.98;;;2.63;;
56141;SDS011;42018;48.588;10.836;2023-02-04T03:20:04;10.45;;;2.92;;
56141;SDS011;42018;48.588;10.836;2023-02-04T03:22:51;11.52;;;3.15;;
56141;SDS011;42018;48.588;10.836;2023-02-04T03:25:37;8.55;;;2.67;;
56141;SDS011;42018;48.588;10.836;2023-02-04T03:28:22;9.35;;;2.58;;
56141;SDS011;42018;48.588;10.836;2023-02-04T03:31:08;10.50;;;3.30;;
56141;SDS011;42018;48.588;10.836;2023-02-04T03:33:53;11.40;;;2.63;;
56141;SDS011;42018;48.588;10.836;2023-02-04T03:36:39;8.95;;;2.78;;
56141;SDS011;42018;48.588;10.836;2023-02-04T03:39:24;7.60;;;2.60;;
56141;SDS011;42018;48.588;10.836;2023-02-04T03:42:09;9.93;;;3.42;;
56141;SDS011;42018;48.588;10.836;2023-02-04T03:44:55;8.35;;;2.55;;
56141;SDS011;42018;48.588;10.836;2023-02-04T03:47:40;10.65;;;3.13;;
56141;SDS011;42018;48.588;10.836;2023-02-04T03:50:26;10.77;;;3.05;;
56141;SDS011;42018;48.588;10.836;2023-02-04T03:53:11;10.05;;;2.75;;
56141;SDS011;42018;48.588;10.836;2023-02-04T03:55:57;11.48;;;2.97;;
56141;SDS011;42018;48.588;10.836;2023-02-04T03:58:42;7.18;;;2.53;;
56141;SDS011;42018;48.588;10.836;2023-02-04T04:01:28;9.13;;;2.95;;
56141;SDS011;42018;48.588;10.836;2023-02-04T04:04:13;9.70;;;3.25;;
56141;SDS011;42018;48.588;10.836;2023-02-04T04:06:58;7.63;;;2.78;;
56141;SDS011;42018;48.588;10.836;2023-02-04T04:09:44;8.80;;;3.08;;
56141;SDS011;42018;48.588;10.836;2023-02-04T04:12:29;8.75;;;2.40;;
56141;SDS011;42018;48.588;10.836;2023-02-04T04:15:14;10.70;;;2.83;;
56141;SDS011;42018;48.588;10.836;2023-02-04T04:18:00;10.90;;;3.00;;
56141;SDS011;42018;48.588;10.836;2023-02-04T04:20:46;9.30;;;2.75;;
56141;SDS011;42018;48.588;10.836;2023-02-04T04:23:32;9.40;;;2.97;;
56141;SDS011;42018;48.588;10.836;2023-02-04T04:26:17;9.23;;;3.05;;
56141;SDS011;42018;48.588;10.836;2023-02-04T04:29:02;12.38;;;3.08;;
56141;SDS011;42018;48.588;10.836;2023-02-04T04:31:48;10.82;;;3.53;;
56141;SDS011;42018;48.588;10.836;2023-02-04T04:34:33;9.77;;;3.00;;
56141;SDS011;42018;48.588;10.836;2023-02-04T04:37:18;9.07;;;2.92;;
56141;SDS011;42018;48.588;10.836;2023-02-04T04:40:04;11.32;;;3.00;;
56141;SDS011;42018;48.588;10.836;2023-02-04T04:42:50;8.52;;;2.85;;
56141;SDS011;42018;48.588;10.836;2023-02-04T04:45:35;10.93;;;3.08;;
56141;SDS011;42018;48.588;10.836;2023-02-04T04:48:20;13.15;;;3.83;;
56141;SDS011;42018;48.588;10.836;2023-02-04T04:51:05;10.80;;;3.05;;
56141;SDS011;42018;48.588;10.836;2023-02-04T04:53:51;9.45;;;3.08;;
56141;SDS011;42018;48.588;10.836;2023-02-04T04:56:39;14.30;;;3.65;;
56141;SDS011;42018;48.588;10.836;2023-02-04T04:59:24;9.27;;;2.92;;
56141;SDS011;42018;48.588;10.836;2023-02-04T05:02:10;11.55;;;3.30;;
56141;SDS011;42018;48.588;10.836;2023-02-04T05:04:55;7.35;;;2.35;;
56141;SDS011;42018;48.588;10.836;2023-02-04T05:07:40;11.93;;;2.97;;
56141;SDS011;42018;48.588;10.836;2023-02-04T05:10:26;10.20;;;2.75;;
56141;SDS011;42018;48.588;10.836;2023-02-04T05:13:11;8.32;;;2.72;;
56141;SDS011;42018;48.588;10.836;2023-02-04T05:15:57;8.63;;;2.80;;
56141;SDS011;42018;48.588;10.836;2023-02-04T05:18:43;7.97;;;2.58;;
56141;SDS011;42018;48.588;10.836;2023-02-04T05:21:28;10.20;;;2.92;;
56141;SDS011;42018;48.588;10.836;2023-02-04T05:24:13;10.63;;;2.70;;
56141;SDS011;42018;48.588;10.836;2023-02-04T05:26:59;10.07;;;2.90;;
56141;SDS011;42018;48.588;10.836;2023-02-04T05:29:44;11.65;;;3.08;;
56141;SDS011;42018;48.588;10.836;2023-02-04T05:32:29;7.13;;;2.30;;
56141;SDS011;42018;48.588;10.836;2023-02-04T05:35:15;8.13;;;2.70;;
56141;SDS011;42018;48.588;10.836;2023-02-04T05:38:00;10.40;;;2.70;;
56141;SDS011;42018;48.588;10.836;2023-02-04T05:40:46;10.52;;;2.88;;
56141;SDS011;42018;48.588;10.836;2023-02-04T05:43:31;8.57;;;2.45;;
56141;SDS011;42018;48.588;10.836;2023-02-04T05:46:16;12.48;;;2.67;;
56141;SDS011;42018;48.588;10.836;2023-02-04T05:49:02;6.82;;;2.67;;
56141;SDS011;42018;48.588;10.836;2023-02-04T05:51:47;7.00;;;2.65;;
56141;SDS011;42018;48.588;10.836;2023-02-04T05:54:32;7.60;;;2.75;;
56141;SDS011;42018;48.588;10.836;2023-02-04T05:57:18;8.85;;;3.17;;
56141;SDS011;42018;48.588;10.836;2023-02-04T06:00:04;9.10;;;2.50;;
56141;SDS011;42018;48.588;10.836;2023-02-04T06:02:50;10.18;;;3.08;;
56141;SDS011;42018;48.588;10.836;2023-02-04T06:05:35;9.98;;;2.85;;
56141;SDS011;42018;48.588;10.836;2023-02-04T06:08:21;9.10;;;2.95;;
56141;SDS011;42018;48.588;10.836;2023-02-04T06:11:07;7.03;;;2.30;;
56141;SDS011;42018;48.588;10.836;2023-02-04T06:13:52;12.60;;;2.80;;
56141;SDS011;42018;48.588;10.836;2023-02-04T06:16:37;6.50;;;2.35;;
56141;SDS011;42018;48.588;10.836;2023-02-04T06:19:23;9.45;;;2.95;;
56141;SDS011;42018;48.588;10.836;2023-02-04T06:22:08;9.55;;;3.22;;
56141;SDS011;42018;48.588;10.836;2023-02-04T06:24:53;8.32;;;2.70;;
56141;SDS011;42018;48.588;10.836;2023-02-04T06:27:39;7.32;;;2.65;;
56141;SDS011;42018;48.588;10.836;2023-02-04T06:30:24;10.63;;;3.17;;
56141;SDS011;42018;48.588;10.836;2023-02-04T06:33:09;7.13;;;2.78;;
56141;SDS011;42018;48.588;10.836;2023-02-04T06:36:02;7.72;;;2.50;;
56141;SDS011;42018;48.588;10.836;2023-02-04T06:38:50;7.10;;;2.70;;
56141;SDS011;42018;48.588;10.836;2023-02-04T06:41:36;9.10;;;3.13;;
56141;SDS011;42018;48.588;10.836;2023-02-04T06:44:21;11.63;;;2.75;;
56141;SDS011;42018;48.588;10.836;2023-02-04T06:47:06;9.73;;;2.38;;
56141;SDS011;42018;48.588;10.836;2023-02-04T06:49:52;7.72;;;2.15;;
56141;SDS011;42018;48.588;10.836;2023-02-04T06:52:37;7.68;;;2.10;;
56141;SDS011;42018;48.588;10.836;2023-02-04T06:55:23;7.75;;;2.67;;
56141;SDS011;42018;48.588;10.836;2023-02-04T06:58:08;7.78;;;2.22;;
56141;SDS011;42018;48.588;10.836;2023-02-04T07:00:53;7.57;;;2.20;;
56141;SDS011;42018;48.588;10.836;2023-02-04T07:03:39;12.45;;;3.08;;
56141;SDS011;42018;48.588;10.836;2023-02-04T07:06:24;6.22;;;2.10;;
56141;SDS011;42018;48.588;10.836;2023-02-04T07:09:09;10.43;;;3.08;;
56141;SDS011;42018;48.588;10.836;2023-02-04T07:11:55;9.35;;;3.05;;
56141;SDS011;42018;48.588;10.836;2023-02-04T07:14:40;7.88;;;2.42;;
56141;SDS011;42018;48.588;10.836;2023-02-04T07:17:25;7.70;;;2.38;;
56141;SDS011;42018;48.588;10.836;2023-02-04T07:20:11;9.13;;;2.88;;
56141;SDS011;42018;48.588;10.836;2023-02-04T07:22:57;11.55;;;2.65;;
56141;SDS011;42018;48.588;10.836;2023-02-04T07:25:42;11.57;;;2.85;;
56141;SDS011;42018;48.588;10.836;2023-02-04T07:28:28;10.80;;;2.50;;
56141;SDS011;42018;48.588;10.836;2023-02-04T07:31:13;10.55;;;3.00;;
56141;SDS011;42018;48.588;10.836;2023-02-04T07:33:59;11.88;;;3.88;;
56141;SDS011;42018;48.588;10.836;2023-02-04T07:36:44;10.13;;;4.45;;
56141;SDS011;42018;48.588;10.836;2023-02-04T07:39:29;10.63;;;4.20;;
56141;SDS011;42018;48.588;10.836;2023-02-04T07:42:15;11.07;;;3.55;;
56141;SDS011;42018;48.588;10.836;2023-02-04T07:45:00;9.82;;;2.67;;
56141;SDS011;42018;48.588;10.836;2023-02-04T07:47:46;12.43;;;3.22;;
56141;SDS011;42018;48.588;10.836;2023-02-04T07:50:31;11.95;;;2.83;;
56141;SDS011;42018;48.588;10.836;2023-02-04T07:53:17;11.70;;;3.28;;
56141;SDS011;42018;48.588;10.836;2023-02-04T07:56:02;10.27;;;3.08;;
56141;SDS011;42018;48.588;10.836;2023-02-04T07:58:48;10.88;;;2.95;;
56141;SDS011;42018;48.588;10.836;2023-02-04T08:01:33;12.25;;;3.13;;
56141;SDS011;42018;48.588;10.836;2023-02-04T08:04:18;8.45;;;2.83;;
56141;SDS011;42018;48.588;10.836;2023-02-04T08:07:04;10.55;;;3.13;;
56141;SDS011;42018;48.588;10.836;2023-02-04T08:09:49;9.48;;;3.20;;
56141;SDS011;42018;48.588;10.836;2023-02-04T08:12:34;10.68;;;3.20;;
56141;SDS011;42018;48.588;10.836;2023-02-04T08:15:20;11.07;;;3.08;;
56141;SDS011;42018;48.588;10.836;2023-02-04T08:18:06;8.18;;;3.13;;
56141;SDS011;42018;48.588;10.836;2023-02-04T08:20:51;12.95;;;3.53;;
56141;SDS011;42018;48.588;10.836;2023-02-04T08:23:36;13.75;;;3.15;;
56141;SDS011;42018;48.588;10.836;2023-02-04T08:26:25;10.70;;;3.25;;
56141;SDS011;42018;48.588;10.836;2023-02-04T08:29:11;13.18;;;3.25;;
56141;SDS011;42018;48.588;10.836;2023-02-04T08:31:56;8.10;;;2.60;;
56141;SDS011;42018;48.588;10.836;2023-02-04T08:34:41;10.38;;;3.17;;
56141;SDS011;42018;48.588;10.836;2023-02-04T08:37:28;10.15;;;3.17;;
56141;SDS011;42018;48.588;10.836;2023-02-04T08:40:13;11.18;;;2.85;;
56141;SDS011;42018;48.588;10.836;2023-02-04T08:42:58;11.23;;;3.13;;
56141;SDS011;42018;48.588;10.836;2023-02-04T08:45:44;12.23;;;3.15;;
56141;SDS011;42018;48.588;10.836;2023-02-04T08:48:29;8.82;;;2.65;;
56141;SDS011;42018;48.588;10.836;2023-02-04T08:51:15;9.25;;;2.80;;
56141;SDS011;42018;48.588;10.836;2023-02-04T08:54:01;9.05;;;3.08;;
56141;SDS011;42018;48.588;10.836;2023-02-04T08:56:46;9.23;;;3.50;;
56141;SDS011;42018;48.588;10.836;2023-02-04T08:59:31;12.35;;;3.88;;
56141;SDS011;42018;48.588;10.836;2023-02-04T09:02:17;8.00;;;3.20;;
56141;SDS011;42018;48.588;10.836;2023-02-04T09:05:02;7.20;;;2.78;;
56141;SDS011;42018;48.588;10.836;2023-02-04T09:07:48;10.48;;;2.95;;
56141;SDS011;42018;48.588;10.836;2023-02-04T09:10:33;10.68;;;2.80;;
56141;SDS011;42018;48.588;10.836;2023-02-04T09:13:18;9.75;;;2.83;;
56141;SDS011;42018;48.588;10.836;2023-02-04T09:16:04;12.55;;;3.03;;
56141;SDS011;42018;48.588;10.836;2023-02-04T09:18:49;13.63;;;3.50;;
56141;SDS011;42018;48.588;10.836;2023-02-04T09:21:35;10.07;;;2.95;;
56141;SDS011;42018;48.588;10.836;2023-02-04T09:24:20;13.00;;;3.65;;
56141;SDS011;42018;48.588;10.836;2023-02-04T09:27:08;11.18;;;3.42;;
56141;SDS011;42018;48.588;10.836;2023-02-04T09:29:54;12.60;;;3.25;;
56141;SDS011;42018;48.588;10.836;2023-02-04T09:32:39;10.63;;;3.97;;
56141;SDS011;42018;48.588;10.836;2023-02-04T09:35:25;9.52;;;2.42;;
56141;SDS011;42018;48.588;10.836;2023-02-04T09:38:11;10.40;;;2.88;;
56141;SDS011;42018;48.588;10.836;2023-02-04T09:40:57;9.68;;;2.67;;
56141;SDS011;42018;48.588;10.836;2023-02-04T09:43:45;9.32;;;3.15;;
56141;SDS011;42018;48.588;10.836;2023-02-04T09:46:30;8.93;;;3.10;;
56141;SDS011;42018;48.588;10.836;2023-02-04T09:49:17;7.28;;;2.25;;
56141;SDS011;42018;48.588;10.836;2023-02-04T09:52:08;8.52;;;3.08;;
56141;SDS011;42018;48.588;10.836;2023-02-04T09:55:29;9.57;;;2.97;;
56141;SDS011;42018;48.588;10.836;2023-02-04T09:58:18;9.10;;;3.00;;
56141;SDS011;42018;48.588;10.836;2023-02-04T10:01:14;12.13;;;3.10;;
56141;SDS011;42018;48.588;10.836;2023-02-04T10:04:00;10.50;;;2.72;;
56141;SDS011;42018;48.588;10.836;2023-02-04T10:06:47;8.05;;;2.33;;
56141;SDS011;42018;48.588;10.836;2023-02-04T10:09:32;7.97;;;2.60;;
56141;SDS011;42018;48.588;10.836;2023-02-04T10:12:18;9.10;;;2.42;;
56141;SDS011;42018;48.588;10.836;2023-02-04T10:15:04;9.63;;;2.63;;
56141;SDS011;42018;48.588;10.836;2023-02-04T10:17:57;10.10;;;2.75;;
56141;SDS011;42018;48.588;10.836;2023-02-04T10:20:55;8.90;;;2.58;;
56141;SDS011;42018;48.588;10.836;2023-02-04T10:23:49;8.05;;;2.28;;
56141;SDS011;42018;48.588;10.836;2023-02-04T10:29:14;8.40;;;2.40;;
56141;SDS011;42018;48.588;10.836;2023-02-04T10:32:01;7.45;;;2.17;;
56141;SDS011;42018;48.588;10.836;2023-02-04T10:34:47;6.63;;;2.22;;
56141;SDS011;42018;48.588;10.836;2023-02-04T10:37:32;6.38;;;1.70;;
56141;SDS011;42018;48.588;10.836;2023-02-04T10:40:24;6.45;;;1.85;;
56141;SDS011;42018;48.588;10.836;2023-02-04T10:43:20;5.27;;;1.90;;
56141;SDS011;42018;48.588;10.836;2023-02-04T10:46:06;4.65;;;1.85;;
56141;SDS011;42018;48.588;10.836;2023-02-04T10:48:52;8.88;;;4.10;;
56141;SDS011;42018;48.588;10.836;2023-02-04T10:51:37;5.25;;;2.05;;
56141;SDS011;42018;48.588;10.836;2023-02-04T10:54:27;11.23;;;3.90;;
56141;SDS011;42018;48.588;10.836;2023-02-04T10:57:20;4.63;;;1.70;;
56141;SDS011;42018;48.588;10.836;2023-02-04T11:00:14;4.43;;;1.80;;
56141;SDS011;42018;48.588;10.836;2023-02-04T11:03:09;5.05;;;1.60;;
56141;SDS011;42018;48.588;10.836;2023-02-04T11:05:59;5.28;;;1.15;;
56141;SDS011;42018;48.588;10.836;2023-02-04T11:08:46;4.93;;;1.40;;
56141;SDS011;42018;48.588;10.836;2023-02-04T11:11:32;4.60;;;1.63;;
56141;SDS011;42018;48.588;10.836;2023-02-04T11:14:21;3.42;;;1.42;;
56141;SDS011;42018;48.588;10.836;2023-02-04T11:17:18;5.78;;;1.40;;
56141;SDS011;42018;48.588;10.836;2023-02-04T11:20:47;4.13;;;1.40;;
56141;SDS011;42018;48.588;10.836;2023-02-04T11:26:12;3.88;;;1.50;;
56141;SDS011;42018;48.588;10.836;2023-02-04T11:29:08;6.18;;;2.50;;
56141;SDS011;42018;48.588;10.836;2023-02-04T11:34:43;7.55;;;2.72;;
56141;SDS011;42018;48.588;10.836;2023-02-04T11:43:12;4.85;;;2.35;;
56141;SDS011;42018;48.588;10.836;2023-02-04T11:46:01;3.35;;;1.50;;
56141;SDS011;42018;48.588;10.836;2023-02-04T11:48:53;5.13;;;1.40;;
56141;SDS011;42018;48.588;10.836;2023-02-04T11:54:25;3.72;;;1.40;;
56141;SDS011;42018;48.588;10.836;2023-02-04T11:57:10;3.42;;;1.67;;
56141;SDS011;42018;48.588;10.836;2023-02-04T11:59:56;3.35;;;1.50;;
56141;SDS011;42018;48.588;10.836;2023-02-04T12:02:44;3.63;;;1.55;;
56141;SDS011;42018;48.588;10.836;2023-02-04T12:11:24;3.97;;;1.55;;
56141;SDS011;42018;48.588;10.836;2023-02-04T12:14:16;3.45;;;1.45;;
56141;SDS011;42018;48.588;10.836;2023-02-04T12:17:19;4.82;;;1.70;;
56141;SDS011;42018;48.588;10.836;2023-02-04T12:20:04;3.83;;;1.80;;
56141;SDS011;42018;48.588;10.836;2023-02-04T12:22:50;3.97;;;1.70;;
56141;SDS011;42018;48.588;10.836;2023-02-04T12:25:35;4.13;;;1.60;;
56141;SDS011;42018;48.588;10.836;2023-02-04T12:28:21;3.67;;;2.08;;
56141;SDS011;42018;48.588;10.836;2023-02-04T12:31:07;5.00;;;1.63;;
56141;SDS011;42018;48.588;10.836;2023-02-04T12:33:52;3.88;;;1.85;;
56141;SDS011;42018;48.588;10.836;2023-02-04T12:36:38;4.75;;;1.70;;
56141;SDS011;42018;48.588;10.836;2023-02-04T12:39:23;3.80;;;1.70;;
56141;SDS011;42018;48.588;10.836;2023-02-04T12:42:08;5.05;;;1.83;;
56141;SDS011;42018;48.588;10.836;2023-02-04T12:44:54;4.32;;;1.90;;
56141;SDS011;42018;48.588;10.836;2023-02-04T12:47:39;3.45;;;1.50;;
56141;SDS011;42018;48.588;10.836;2023-02-04T12:50:25;4.50;;;1.60;;
56141;SDS011;42018;48.588;10.836;2023-02-04T12:53:10;3.40;;;1.63;;
56141;SDS011;42018;48.588;10.836;2023-02-04T12:55:56;3.05;;;1.50;;
56141;SDS011;42018;48.588;10.836;2023-02-04T12:58:41;3.33;;;1.48;;
56141;SDS011;42018;48.588;10.836;2023-02-04T13:01:26;4.57;;;1.80;;
56141;SDS011;42018;48.588;10.836;2023-02-04T13:04:12;4.05;;;1.60;;
56141;SDS011;42018;48.588;10.836;2023-02-04T13:06:57;2.90;;;1.50;;
56141;SDS011;42018;48.588;10.836;2023-02-04T13:09:42;2.28;;;1.27;;
56141;SDS011;42018;48.588;10.836;2023-02-04T13:12:29;2.65;;;1.20;;
56141;SDS011;42018;48.588;10.836;2023-02-04T13:15:14;4.00;;;1.50;;
56141;SDS011;42018;48.588;10.836;2023-02-04T13:18:00;2.83;;;1.52;;
56141;SDS011;42018;48.588;10.836;2023-02-04T13:20:45;3.22;;;1.60;;
56141;SDS011;42018;48.588;10.836;2023-02-04T13:23:31;3.38;;;1.40;;
56141;SDS011;42018;48.588;10.836;2023-02-04T13:26:16;4.80;;;2.20;;
56141;SDS011;42018;48.588;10.836;2023-02-04T13:29:01;3.70;;;1.67;;
56141;SDS011;42018;48.588;10.836;2023-02-04T13:31:47;3.25;;;1.60;;
56141;SDS011;42018;48.588;10.836;2023-02-04T13:34:33;3.20;;;1.63;;
56141;SDS011;42018;48.588;10.836;2023-02-04T13:37:18;3.55;;;1.50;;
56141;SDS011;42018;48.588;10.836;2023-02-04T13:40:04;2.25;;;1.30;;
56141;SDS011;42018;48.588;10.836;2023-02-04T13:42:51;3.40;;;1.58;;
56141;SDS011;42018;48.588;10.836;2023-02-04T13:45:37;6.50;;;2.20;;
56141;SDS011;42018;48.588;10.836;2023-02-04T13:48:22;3.58;;;1.80;;
56141;SDS011;42018;48.588;10.836;2023-02-04T13:51:08;6.05;;;3.58;;
56141;SDS011;42018;48.588;10.836;2023-02-04T13:53:53;4.50;;;2.30;;
56141;SDS011;42018;48.588;10.836;2023-02-04T13:56:38;4.57;;;2.60;;
56141;SDS011;42018;48.588;10.836;2023-02-04T13:59:25;5.97;;;3.78;;
56141;SDS011;42018;48.588;10.836;2023-02-04T14:11:33;4.10;;;2.50;;
56141;SDS011;42018;48.588;10.836;2023-02-04T14:14:18;5.50;;;2.85;;
56141;SDS011;42018;48.588;10.836;2023-02-04T14:17:04;4.10;;;1.65;;
56141;SDS011;42018;48.588;10.836;2023-02-04T14:19:49;4.97;;;2.60;;
56141;SDS011;42018;48.588;10.836;2023-02-04T14:22:35;8.32;;;5.30;;
56141;SDS011;42018;48.588;10.836;2023-02-04T14:25:20;6.10;;;3.97;;
56141;SDS011;42018;48.588;10.836;2023-02-04T14:28:06;6.68;;;4.43;;
56141;SDS011;42018;48.588;10.836;2023-02-04T14:30:54;5.93;;;3.70;;
56141;SDS011;42018;48.588;10.836;2023-02-04T14:33:39;4.60;;;2.50;;
56141;SDS011;42018;48.588;10.836;2023-02-04T14:36:25;5.78;;;3.50;;
56141;SDS011;42018;48.588;10.836;2023-02-04T14:39:10;4.78;;;2.22;;
56141;SDS011;42018;48.588;10.836;2023-02-04T14:41:56;3.42;;;1.60;;
56141;SDS011;42018;48.588;10.836;2023-02-04T14:44:41;3.75;;;1.70;;
56141;SDS011;42018;48.588;10.836;2023-02-04T14:50:02;3.95;;;2.03;;
56141;SDS011;42018;48.588;10.836;2023-02-04T14:52:49;4.30;;;2.30;;
56141;SDS011;42018;48.588;10.836;2023-02-04T14:55:34;4.13;;;1.90;;
56141;SDS011;42018;48.588;10.836;2023-02-04T14:58:20;4.63;;;2.35;;
56141;SDS011;42018;48.588;10.836;2023-02-04T15:01:08;4.20;;;2.28;;
56141;SDS011;42018;48.588;10.836;2023-02-04T15:04:06;4.40;;;2.17;;
56141;SDS011;42018;48.588;10.836;2023-02-04T15:06:51;3.63;;;1.90;;
56141;SDS011;42018;48.588;10.836;2023-02-04T15:09:38;4.18;;;1.60;;
56141;SDS011;42018;48.588;10.836;2023-02-04T15:12:24;3.60;;;1.58;;
56141;SDS011;42018;48.588;10.836;2023-02-04T15:15:09;3.60;;;1.42;;
56141;SDS011;42018;48.588;10.836;2023-02-04T15:17:55;5.13;;;2.15;;
56141;SDS011;42018;48.588;10.836;2023-02-04T15:20:40;3.60;;;1.70;;
56141;SDS011;42018;48.588;10.836;2023-02-04T15:23:25;3.78;;;1.40;;
56141;SDS011;42018;48.588;10.836;2023-02-04T15:26:11;3.55;;;1.55;;
56141;SDS011;42018;48.588;10.836;2023-02-04T15:28:57;3.83;;;2.00;;
56141;SDS011;42018;48.588;10.836;2023-02-04T15:31:43;8.38;;;4.35;;
56141;SDS011;42018;48.588;10.836;2023-02-04T15:34:28;4.35;;;2.25;;
56141;SDS011;42018;48.588;10.836;2023-02-04T15:37:14;4.63;;;2.00;;
56141;SDS011;42018;48.588;10.836;2023-02-04T15:40:00;4.65;;;2.30;;
56141;SDS011;42018;48.588;10.836;2023-02-04T15:42:45;6.43;;;5.50;;
56141;SDS011;42018;48.588;10.836;2023-02-04T15:45:31;3.83;;;2.28;;
56141;SDS011;42018;48.588;10.836;2023-02-04T15:48:16;3.72;;;1.70;;
56141;SDS011;42018;48.588;10.836;2023-02-04T15:51:03;3.25;;;1.63;;
56141;SDS011;42018;48.588;10.836;2023-02-04T15:53:51;3.97;;;1.92;;
56141;SDS011;42018;48.588;10.836;2023-02-04T15:56:37;4.10;;;2.10;;
56141;SDS011;42018;48.588;10.836;2023-02-04T15:59:23;3.70;;;1.52;;
56141;SDS011;42018;48.588;10.836;2023-02-04T16:02:08;3.47;;;1.70;;
56141;SDS011;42018;48.588;10.836;2023-02-04T16:04:55;4.15;;;2.22;;
56141;SDS011;42018;48.588;10.836;2023-02-04T16:07:41;5.13;;;2.88;;
56141;SDS011;42018;48.588;10.836;2023-02-04T16:10:26;5.68;;;3.30;;
56141;SDS011;42018;48.588;10.836;2023-02-04T16:13:12;5.50;;;3.40;;
56141;SDS011;42018;48.588;10.836;2023-02-04T16:15:57;6.32;;;3.88;;
56141;SDS011;42018;48.588;10.836;2023-02-04T16:18:43;4.78;;;2.70;;
56141;SDS011;42018;48.588;10.836;2023-02-04T16:21:28;4.43;;;2.42;;
56141;SDS011;42018;48.588;10.836;2023-02-04T16:24:13;4.05;;;2.28;;
56141;SDS011;42018;48.588;10.836;2023-02-04T16:27:02;4.75;;;2.45;;
56141;SDS011;42018;48.588;10.836;2023-02-04T16:29:47;6.75;;;3.20;;
56141;SDS011;42018;48.588;10.836;2023-02-04T16:32:33;9.88;;;5.10;;
56141;SDS011;42018;48.588;10.836;2023-02-04T16:35:18;14.48;;;6.53;;
56141;SDS011;42018;48.588;10.836;2023-02-04T16:38:03;11.43;;;5.55;;
56141;SDS011;42018;48.588;10.836;2023-02-04T16:40:49;8.85;;;4.57;;
56141;SDS011;42018;48.588;10.836;2023-02-04T16:43:34;10.65;;;5.38;;
56141;SDS011;42018;48.588;10.836;2023-02-04T16:46:20;7.32;;;4.82;;
56141;SDS011;42018;48.588;10.836;2023-02-04T16:49:05;7.28;;;5.25;;
56141;SDS011;42018;48.588;10.836;2023-02-04T16:51:50;7.70;;;4.90;;
56141;SDS011;42018;48.588;10.836;2023-02-04T16:54:36;6.97;;;4.40;;
56141;SDS011;42018;48.588;10.836;2023-02-04T16:57:21;5.20;;;3.30;;